createdAt,value
2017-06-20T00:01:07.516Z,5.15
2017-06-20T00:03:35.173Z,5.07
2017-06-20T00:06:03.128Z,5.45
2017-06-20T00:08:30.761Z,5.15
2017-06-20T00:10:58.392Z,5.72
2017-06-20T00:13:26.332Z,5.90
2017-06-20T00:15:53.996Z,5.22
2017-06-20T00:18:21.640Z,5.50
2017-06-20T00:20:49.691Z,7.20
2017-06-20T00:23:17.341Z,5.55
2017-06-20T00:25:44.981Z,6.53
2017-06-20T00:28:12.943Z,5.28
2017-06-20T00:30:40.589Z,5.50
2017-06-20T00:33:08.239Z,5.53
2017-06-20T00:35:36.192Z,5.60
2017-06-20T00:38:04.745Z,5.78
2017-06-20T00:40:32.377Z,5.12
2017-06-20T00:43:00.377Z,6.25
2017-06-20T00:45:28.014Z,5.72
2017-06-20T00:47:55.663Z,6.15
2017-06-20T00:50:23.601Z,5.60
2017-06-20T00:52:51.247Z,5.62
2017-06-20T00:55:18.884Z,6.05
2017-06-20T00:57:46.853Z,6.45
2017-06-20T01:00:14.501Z,5.57
2017-06-20T01:02:42.137Z,5.57
2017-06-20T01:05:10.105Z,5.87
2017-06-20T01:07:37.752Z,6.65
2017-06-20T01:10:05.397Z,6.12
2017-06-20T01:12:33.449Z,6.90
2017-06-20T01:15:01.081Z,6.43
2017-06-20T01:17:28.752Z,6.55
2017-06-20T01:19:56.726Z,6.68
2017-06-20T01:22:24.372Z,6.90
2017-06-20T01:24:52.025Z,6.40
2017-06-20T01:27:20.052Z,6.47
2017-06-20T01:29:47.701Z,6.45
2017-06-20T01:32:15.344Z,7.05
2017-06-20T01:34:43.416Z,7.70
2017-06-20T01:37:11.056Z,6.57
2017-06-20T01:39:38.694Z,7.00
2017-06-20T01:42:06.610Z,7.45
2017-06-20T01:44:34.260Z,7.15
2017-06-20T01:47:01.896Z,6.87
2017-06-20T01:49:29.930Z,7.82
2017-06-20T01:51:58.348Z,6.35
2017-06-20T01:54:25.980Z,7.57
2017-06-20T01:56:53.950Z,7.10
2017-06-20T01:59:21.618Z,7.30
2017-06-20T02:01:49.256Z,6.72
2017-06-20T02:04:17.194Z,6.72
2017-06-20T02:06:44.834Z,7.95
2017-06-20T02:09:12.496Z,6.82
2017-06-20T02:11:40.439Z,7.53
2017-06-20T02:14:08.086Z,7.22
2017-06-20T02:16:35.716Z,8.80
2017-06-20T02:19:03.788Z,7.10
2017-06-20T02:21:32.403Z,9.25
2017-06-20T02:24:00.042Z,7.28
2017-06-20T02:26:28.005Z,6.35
2017-06-20T02:28:56.412Z,8.60
2017-06-20T02:31:24.076Z,8.38
2017-06-20T02:33:52.012Z,9.23
2017-06-20T02:36:19.664Z,9.15
2017-06-20T02:38:47.298Z,8.50
2017-06-20T02:41:15.285Z,7.97
2017-06-20T02:43:42.928Z,8.10
2017-06-20T02:46:10.579Z,7.97
2017-06-20T02:48:38.662Z,8.35
2017-06-20T02:51:06.305Z,9.52
2017-06-20T02:53:33.949Z,7.35
2017-06-20T02:56:01.917Z,8.10
2017-06-20T02:58:30.336Z,7.95
2017-06-20T03:00:57.973Z,8.35
2017-06-20T03:03:25.913Z,7.78
2017-06-20T03:05:53.590Z,8.60
2017-06-20T03:08:21.228Z,9.48
2017-06-20T03:11:14.880Z,7.95
2017-06-20T03:13:42.508Z,8.32
2017-06-20T03:16:10.149Z,8.30
2017-06-20T03:18:38.080Z,7.90
2017-06-20T03:21:06.444Z,8.70
2017-06-20T03:23:34.100Z,7.65
2017-06-20T03:26:02.098Z,8.13
2017-06-20T03:28:29.736Z,7.80
2017-06-20T03:30:57.398Z,8.55
2017-06-20T03:33:25.336Z,7.87
2017-06-20T03:35:53.078Z,8.48
2017-06-20T03:38:20.765Z,9.18
2017-06-20T03:40:48.804Z,8.35
2017-06-20T03:43:16.464Z,11.32
2017-06-20T03:45:44.106Z,8.75
2017-06-20T03:48:12.043Z,9.43
2017-06-20T03:50:39.668Z,8.77
2017-06-20T03:53:07.309Z,7.85
2017-06-20T03:55:35.364Z,9.10
2017-06-20T03:58:02.999Z,8.55
2017-06-20T04:00:30.644Z,8.02
2017-06-20T04:02:58.617Z,8.20
2017-06-20T04:05:26.268Z,9.52
2017-06-20T04:07:54.049Z,7.95
2017-06-20T04:10:22.800Z,7.95
2017-06-20T04:12:50.450Z,8.65
2017-06-20T04:15:18.098Z,8.10
2017-06-20T04:17:46.160Z,8.85
2017-06-20T04:20:13.801Z,7.22
2017-06-20T04:22:41.437Z,7.65
2017-06-20T04:25:09.424Z,7.65
2017-06-20T04:27:37.069Z,9.68
2017-06-20T04:30:04.704Z,7.82
2017-06-20T04:32:32.877Z,7.05
2017-06-20T04:35:00.530Z,7.70
2017-06-20T04:37:28.186Z,7.95
2017-06-20T04:39:56.908Z,7.50
2017-06-20T04:42:24.548Z,7.12
2017-06-20T04:44:52.932Z,7.13
2017-06-20T04:47:20.869Z,7.13
2017-06-20T04:49:48.572Z,6.60
2017-06-20T04:52:16.178Z,7.70
2017-06-20T04:54:44.135Z,7.27
2017-06-20T04:57:11.758Z,6.57
2017-06-20T04:59:40.474Z,5.97
2017-06-20T05:02:08.506Z,6.93
2017-06-20T05:04:36.112Z,7.07
2017-06-20T05:07:03.722Z,6.20
2017-06-20T05:09:31.608Z,7.23
2017-06-20T05:11:59.996Z,6.30
2017-06-20T05:14:27.611Z,6.80
2017-06-20T05:16:55.512Z,8.23
2017-06-20T05:19:23.127Z,6.00
2017-06-20T05:21:50.754Z,5.90
2017-06-20T05:24:18.755Z,7.27
2017-06-20T05:26:46.365Z,7.10
2017-06-20T05:29:13.999Z,5.97
2017-06-20T05:31:42.012Z,6.97
2017-06-20T05:34:09.627Z,6.43
2017-06-20T05:36:38.012Z,5.97
2017-06-20T05:39:05.951Z,5.53
2017-06-20T05:41:33.566Z,6.33
2017-06-20T05:44:01.956Z,5.13
2017-06-20T05:46:31.293Z,5.70
2017-06-20T05:48:58.904Z,5.43
2017-06-20T05:51:26.525Z,5.53
2017-06-20T05:53:54.513Z,6.17
2017-06-20T05:56:22.127Z,4.97
2017-06-20T05:58:49.743Z,4.47
2017-06-20T06:01:17.660Z,7.60
2017-06-20T06:03:45.297Z,5.83
2017-06-20T06:06:12.909Z,7.17
2017-06-20T06:08:41.004Z,6.60
2017-06-20T06:11:08.628Z,5.23
2017-06-20T06:13:36.256Z,5.40
2017-06-20T06:16:04.252Z,4.90
2017-06-20T06:18:31.871Z,4.83
2017-06-20T06:21:00.258Z,4.60
2017-06-20T06:23:28.206Z,4.60
2017-06-20T06:25:55.821Z,5.00
2017-06-20T06:28:23.443Z,5.40
2017-06-20T06:30:51.471Z,4.97
2017-06-20T06:33:19.110Z,5.47
2017-06-20T06:35:46.721Z,5.27
2017-06-20T06:38:15.429Z,6.13
2017-06-20T06:40:43.053Z,5.00
2017-06-20T06:43:10.665Z,7.63
2017-06-20T06:45:40.316Z,5.57
2017-06-20T06:48:07.918Z,5.60
2017-06-20T06:50:36.294Z,5.50
2017-06-20T06:53:05.097Z,5.73
2017-06-20T06:55:32.744Z,4.80
2017-06-20T06:58:01.145Z,4.80
2017-06-20T07:00:29.157Z,4.67
2017-06-20T07:02:56.774Z,4.77
2017-06-20T07:05:24.394Z,4.70
2017-06-20T07:07:52.285Z,5.63
2017-06-20T07:10:19.912Z,4.60
2017-06-20T07:12:47.568Z,5.20
2017-06-20T07:15:16.267Z,5.23
2017-06-20T07:17:43.883Z,4.87
2017-06-20T07:20:12.278Z,4.67
2017-06-20T07:22:40.229Z,6.13
2017-06-20T07:25:07.837Z,4.93
2017-06-20T07:27:36.222Z,4.73
2017-06-20T07:30:04.190Z,4.50
2017-06-20T07:32:31.809Z,4.93
2017-06-20T07:35:00.194Z,5.50
2017-06-20T07:37:28.171Z,4.90
2017-06-20T07:39:55.788Z,5.50
2017-06-20T07:42:23.413Z,4.73
2017-06-20T07:44:51.413Z,5.20
2017-06-20T07:47:19.127Z,4.70
2017-06-20T07:49:47.504Z,4.90
2017-06-20T07:52:15.517Z,5.30
2017-06-20T07:54:43.132Z,4.63
2017-06-20T07:57:10.756Z,5.23
2017-06-20T07:59:38.716Z,4.63
2017-06-20T08:02:06.335Z,4.23
2017-06-20T08:04:34.710Z,4.60
2017-06-20T08:07:02.677Z,5.00
2017-06-20T08:09:30.286Z,4.77
2017-06-20T08:11:58.674Z,5.60
2017-06-20T08:14:26.600Z,5.00
2017-06-20T08:16:54.208Z,4.93
2017-06-20T08:19:21.849Z,5.20
2017-06-20T08:21:55.515Z,5.37
2017-06-20T08:24:23.159Z,5.03
2017-06-20T08:26:50.769Z,4.83
2017-06-20T08:29:18.800Z,5.90
2017-06-20T08:31:46.444Z,5.33
2017-06-20T08:34:14.058Z,8.27
2017-06-20T08:36:42.015Z,5.57
2017-06-20T08:39:09.652Z,5.03
2017-06-20T08:41:37.276Z,5.50
2017-06-20T08:44:05.985Z,5.00
2017-06-20T08:46:33.619Z,4.80
2017-06-20T08:49:01.230Z,4.73
2017-06-20T08:51:29.229Z,5.30
2017-06-20T08:53:56.857Z,5.57
2017-06-20T08:56:24.472Z,4.90
2017-06-20T08:58:52.465Z,5.30
2017-06-20T09:01:20.097Z,5.50
2017-06-20T09:03:48.465Z,5.53
2017-06-20T09:06:16.431Z,5.73
2017-06-20T09:08:44.053Z,4.97
2017-06-20T09:11:12.433Z,4.30
2017-06-20T09:13:40.424Z,5.17
2017-06-20T09:16:08.084Z,5.10
2017-06-20T09:18:35.704Z,4.93
2017-06-20T09:21:03.651Z,4.07
2017-06-20T09:23:31.270Z,5.07
2017-06-20T09:25:59.654Z,5.30
2017-06-20T09:28:27.622Z,5.50
2017-06-20T09:30:55.301Z,7.10
2017-06-20T09:33:22.940Z,5.07
2017-06-20T09:35:50.966Z,5.20
2017-06-20T09:38:18.605Z,5.20
2017-06-20T09:40:46.236Z,5.60
2017-06-20T09:43:30.688Z,5.00
2017-06-20T09:45:58.324Z,5.00
2017-06-20T09:48:25.942Z,5.20
2017-06-20T09:50:53.938Z,4.53
2017-06-20T09:53:21.552Z,4.67
2017-06-20T09:55:49.925Z,5.80
2017-06-20T09:58:18.717Z,5.70
2017-06-20T10:00:46.877Z,5.53
2017-06-20T10:03:14.500Z,5.77
2017-06-20T10:05:43.175Z,4.43
2017-06-20T10:08:10.798Z,4.50
2017-06-20T10:10:38.416Z,5.23
2017-06-20T10:13:06.444Z,5.00
2017-06-20T10:15:34.057Z,6.10
2017-06-20T10:18:02.448Z,5.03
2017-06-20T10:20:30.400Z,5.30
2017-06-20T10:22:58.033Z,4.97
2017-06-20T10:25:25.654Z,5.83
2017-06-20T10:27:53.654Z,6.17
2017-06-20T10:30:21.272Z,5.60
2017-06-20T10:32:48.988Z,5.40
2017-06-20T10:35:16.901Z,5.83
2017-06-20T10:37:44.513Z,6.10
2017-06-20T10:40:12.897Z,5.87
2017-06-20T10:42:40.841Z,5.77
2017-06-20T10:45:08.459Z,7.10
2017-06-20T10:47:36.081Z,5.90
2017-06-20T10:50:04.108Z,6.13
2017-06-20T10:52:31.718Z,6.20
2017-06-20T10:55:00.119Z,6.27
2017-06-20T10:57:28.088Z,5.30
2017-06-20T10:59:55.719Z,6.50
2017-06-20T11:02:23.329Z,6.30
2017-06-20T11:04:51.310Z,6.07
2017-06-20T11:07:18.938Z,7.10
2017-06-20T11:09:47.313Z,5.97
2017-06-20T11:12:15.258Z,6.47
2017-06-20T11:14:43.663Z,6.60
2017-06-20T11:17:11.331Z,5.73
2017-06-20T11:19:39.254Z,5.30
2017-06-20T11:22:06.870Z,6.30
2017-06-20T11:24:35.255Z,5.83
2017-06-20T11:27:03.205Z,5.97
2017-06-20T11:29:30.833Z,9.07
2017-06-20T11:31:59.204Z,5.60
2017-06-20T11:34:27.181Z,6.53
2017-06-20T11:36:54.789Z,6.67
2017-06-20T11:39:23.165Z,5.70
2017-06-20T11:41:51.142Z,5.70
2017-06-20T11:44:18.880Z,5.70
2017-06-20T11:46:46.532Z,6.30
2017-06-20T11:49:14.497Z,7.40
2017-06-20T11:51:42.172Z,5.57
2017-06-20T11:54:09.779Z,6.27
2017-06-20T11:56:37.714Z,6.37
2017-06-20T11:59:05.339Z,6.60
2017-06-20T12:01:33.725Z,6.50
2017-06-20T12:04:02.402Z,6.90
2017-06-20T12:06:30.018Z,6.97
2017-06-20T12:08:58.411Z,6.00
2017-06-20T12:11:26.382Z,7.23
2017-06-20T12:13:53.985Z,6.97
2017-06-20T12:16:22.437Z,6.50
2017-06-20T12:18:50.338Z,6.20
2017-06-20T12:21:17.991Z,6.33
2017-06-20T12:23:46.126Z,6.03
2017-06-20T12:26:14.817Z,6.90
2017-06-20T12:28:42.432Z,6.57
2017-06-20T12:31:10.816Z,6.93
2017-06-20T12:33:38.810Z,6.00
2017-06-20T12:36:06.419Z,5.90
2017-06-20T12:38:34.057Z,7.07
2017-06-20T12:41:02.047Z,6.00
2017-06-20T12:43:29.659Z,6.33
2017-06-20T12:45:57.278Z,6.57
2017-06-20T12:48:25.262Z,5.83
2017-06-20T12:50:52.877Z,6.17
2017-06-20T12:53:20.484Z,6.20
2017-06-20T12:55:48.404Z,6.97
2017-06-20T12:58:16.021Z,6.53
2017-06-20T13:00:43.646Z,5.53
2017-06-20T13:03:11.659Z,5.93
2017-06-20T13:05:39.320Z,7.00
2017-06-20T13:08:06.937Z,5.60
2017-06-20T13:10:34.832Z,5.87
2017-06-20T13:13:02.441Z,6.80
2017-06-20T13:15:30.055Z,6.37
2017-06-20T13:17:58.058Z,5.73
2017-06-20T13:20:25.682Z,6.10
2017-06-20T13:22:53.312Z,7.10
2017-06-20T13:25:22.038Z,7.43
2017-06-20T13:27:49.662Z,6.97
2017-06-20T13:30:17.277Z,6.00
2017-06-20T13:32:45.206Z,6.37
2017-06-20T13:35:12.821Z,6.20
2017-06-20T13:37:40.437Z,7.27
2017-06-20T13:40:08.646Z,6.63
2017-06-20T13:42:36.273Z,6.90
2017-06-20T13:45:03.877Z,7.20
2017-06-20T13:47:32.598Z,7.03
2017-06-20T13:50:00.362Z,7.20
2017-06-20T13:52:27.990Z,6.60
2017-06-20T13:54:56.022Z,7.10
2017-06-20T13:57:23.691Z,7.67
2017-06-20T13:59:51.316Z,6.20
2017-06-20T14:02:19.243Z,7.47
2017-06-20T14:04:47.654Z,7.33
2017-06-20T14:07:15.265Z,11.87
2017-06-20T14:09:43.170Z,6.73
2017-06-20T14:12:10.787Z,7.13
2017-06-20T14:14:38.421Z,7.27
2017-06-20T14:17:06.382Z,7.30
2017-06-20T14:19:33.994Z,7.73
2017-06-20T14:22:02.381Z,7.13
2017-06-20T14:24:30.349Z,6.33
2017-06-20T14:26:57.964Z,7.30
2017-06-20T14:29:26.353Z,7.47
2017-06-20T14:31:54.310Z,6.70
2017-06-20T14:34:21.961Z,7.60
2017-06-20T14:36:49.568Z,7.40
2017-06-20T14:39:18.382Z,7.77
2017-06-20T14:41:45.992Z,7.50
2017-06-20T14:44:13.626Z,7.20
2017-06-20T14:46:41.523Z,6.97
2017-06-20T14:49:09.146Z,7.17
2017-06-20T14:51:36.777Z,6.30
2017-06-20T14:54:05.521Z,5.60
2017-06-20T14:56:33.136Z,6.60
2017-06-20T14:59:00.740Z,6.23
2017-06-20T15:01:29.400Z,7.03
2017-06-20T15:03:57.049Z,6.93
2017-06-20T15:06:25.421Z,6.80
2017-06-20T15:08:53.684Z,6.77
2017-06-20T15:11:22.107Z,6.73
2017-06-20T15:13:49.726Z,6.67
2017-06-20T15:16:17.661Z,6.10
2017-06-20T15:18:45.317Z,5.77
2017-06-20T15:21:12.944Z,7.20
2017-06-20T15:23:41.145Z,6.50
2017-06-20T15:26:08.872Z,7.17
2017-06-20T15:28:36.509Z,7.23
2017-06-20T15:31:04.412Z,6.40
2017-06-20T15:33:32.037Z,6.87
2017-06-20T15:35:59.653Z,6.57
2017-06-20T15:38:27.596Z,7.13
2017-06-20T15:40:55.212Z,6.57
2017-06-20T15:43:22.821Z,6.73
2017-06-20T15:45:50.741Z,8.03
2017-06-20T15:48:18.362Z,7.37
2017-06-20T15:50:45.989Z,7.07
2017-06-20T15:53:14.005Z,7.53
2017-06-20T15:55:41.635Z,6.90
2017-06-20T15:58:09.248Z,6.63
2017-06-20T16:00:37.248Z,6.20
2017-06-20T16:03:04.860Z,8.80
2017-06-20T16:05:32.468Z,6.73
2017-06-20T16:08:00.393Z,6.50
2017-06-20T16:10:28.026Z,7.10
2017-06-20T16:12:55.651Z,7.37
2017-06-20T16:15:24.340Z,6.53
2017-06-20T16:17:52.740Z,6.70
2017-06-20T16:20:20.371Z,6.93
2017-06-20T16:22:48.435Z,6.80
2017-06-20T16:25:16.049Z,7.00
2017-06-20T16:27:43.696Z,6.50
2017-06-20T16:30:11.664Z,8.00
2017-06-20T16:32:39.293Z,7.80
2017-06-20T16:35:07.671Z,7.50
2017-06-20T16:37:35.590Z,7.50
2017-06-20T16:40:03.224Z,8.00
2017-06-20T16:42:30.831Z,7.33
2017-06-20T16:44:58.821Z,8.10
2017-06-20T16:47:26.439Z,7.27
2017-06-20T16:49:54.058Z,7.30
2017-06-20T16:52:22.039Z,8.00
2017-06-20T16:54:49.657Z,8.20
2017-06-20T16:57:17.292Z,7.90
2017-06-20T16:59:45.977Z,9.50
2017-06-20T17:02:13.598Z,8.30
2017-06-20T17:04:41.261Z,8.33
2017-06-20T17:07:09.231Z,8.30
2017-06-20T17:09:36.849Z,8.30
2017-06-20T17:12:05.235Z,10.03
2017-06-20T17:14:33.127Z,8.50
2017-06-20T17:17:00.740Z,7.90
2017-06-20T17:19:28.368Z,7.60
2017-06-20T17:21:56.528Z,7.20
2017-06-20T17:24:24.172Z,8.30
2017-06-20T17:26:53.020Z,7.87
2017-06-20T17:29:20.954Z,8.10
2017-06-20T17:31:48.577Z,7.40
2017-06-20T17:34:16.184Z,10.20
2017-06-20T17:36:44.926Z,12.27
2017-06-20T17:39:12.584Z,8.30
2017-06-20T17:41:40.201Z,6.47
2017-06-20T17:44:08.132Z,8.03
2017-06-20T17:46:35.752Z,7.50
2017-06-20T17:49:03.356Z,6.80
2017-06-20T17:51:31.274Z,7.93
2017-06-20T17:53:58.890Z,7.10
2017-06-20T17:56:27.278Z,6.60
2017-06-20T17:58:55.255Z,6.70
2017-06-20T18:01:22.889Z,7.00
2017-06-20T18:03:50.494Z,7.07
2017-06-20T18:06:18.454Z,11.07
2017-06-20T18:08:46.830Z,6.27
2017-06-20T18:11:14.493Z,7.30
2017-06-20T18:13:42.450Z,7.17
2017-06-20T18:16:10.137Z,7.30
2017-06-20T18:18:37.833Z,6.07
2017-06-20T18:21:05.813Z,7.03
2017-06-20T18:23:33.434Z,5.90
2017-06-20T18:26:01.095Z,6.03
2017-06-20T18:28:29.120Z,6.43
2017-06-20T18:30:57.508Z,5.97
2017-06-20T18:33:25.118Z,5.70
2017-06-20T18:35:53.065Z,6.80
2017-06-20T18:38:20.701Z,6.10
2017-06-20T18:40:48.373Z,6.67
2017-06-20T18:43:17.072Z,7.23
2017-06-20T18:45:44.699Z,5.93
2017-06-20T18:48:13.248Z,6.00
2017-06-20T18:50:41.554Z,5.33
2017-06-20T18:53:09.183Z,5.40
2017-06-20T18:55:36.792Z,6.90
2017-06-20T18:58:04.712Z,6.30
2017-06-20T19:00:33.342Z,5.73
2017-06-20T19:03:00.960Z,5.63
2017-06-20T19:05:28.887Z,6.30
2017-06-20T19:07:56.508Z,5.50
2017-06-20T19:10:24.128Z,5.50
2017-06-20T19:12:52.816Z,6.40
2017-06-20T19:15:20.436Z,4.70
2017-06-20T19:17:48.040Z,5.50
2017-06-20T19:20:16.064Z,5.93
2017-06-20T19:22:43.760Z,4.97
2017-06-20T19:25:11.376Z,5.53
2017-06-20T19:27:39.315Z,4.53
2017-06-20T19:30:06.916Z,5.17
2017-06-20T19:32:34.916Z,4.90
2017-06-20T19:35:02.868Z,4.50
2017-06-20T19:37:30.483Z,4.73
2017-06-20T19:39:58.095Z,4.77
2017-06-20T19:42:26.128Z,6.90
2017-06-20T19:44:53.744Z,4.83
2017-06-20T19:47:21.479Z,4.97
2017-06-20T19:49:50.193Z,4.83
2017-06-20T19:52:17.814Z,5.17
2017-06-20T19:54:45.446Z,4.40
2017-06-20T19:57:13.439Z,4.07
2017-06-20T19:59:41.169Z,4.63
2017-06-20T20:02:08.793Z,5.87
2017-06-20T20:04:37.508Z,4.73
2017-06-20T20:07:05.112Z,4.60
2017-06-20T20:09:32.730Z,4.00
2017-06-20T20:12:00.663Z,4.53
2017-06-20T20:14:28.297Z,4.23
2017-06-20T20:16:55.912Z,4.90
2017-06-20T20:19:24.813Z,4.40
2017-06-20T20:21:52.441Z,4.73
2017-06-20T20:24:20.063Z,4.30
2017-06-20T20:26:48.071Z,5.17
2017-06-20T20:29:16.997Z,4.37
2017-06-20T20:31:44.775Z,4.63
2017-06-20T20:34:12.740Z,4.60
2017-06-20T20:36:41.969Z,4.73
2017-06-20T20:39:09.613Z,4.33
2017-06-20T20:41:37.519Z,3.60
2017-06-20T20:44:05.141Z,4.13
2017-06-20T20:46:33.516Z,4.00
2017-06-20T20:49:01.505Z,4.60
2017-06-20T20:51:29.117Z,4.43
2017-06-20T20:53:56.745Z,3.80
2017-06-20T20:56:24.725Z,4.13
2017-06-20T20:58:52.352Z,4.40
2017-06-20T21:01:20.729Z,3.60
2017-06-20T21:03:48.698Z,3.80
2017-06-20T21:06:16.321Z,4.10
2017-06-20T21:08:44.709Z,3.57
2017-06-20T21:11:12.668Z,4.17
2017-06-20T21:13:40.288Z,3.90
2017-06-20T21:16:07.922Z,4.00
2017-06-20T21:18:36.648Z,4.43
2017-06-20T21:21:04.317Z,4.67
2017-06-20T21:23:31.935Z,3.87
2017-06-20T21:25:59.876Z,3.70
2017-06-20T21:28:27.488Z,4.17
2017-06-20T21:30:55.109Z,3.80
2017-06-20T21:33:23.056Z,3.80
2017-06-20T21:35:50.676Z,5.77
2017-06-20T21:38:18.302Z,4.20
2017-06-20T21:40:46.264Z,5.50
2017-06-20T21:43:13.875Z,3.70
2017-06-20T21:45:42.256Z,3.47
2017-06-20T21:48:10.229Z,4.43
2017-06-20T21:50:37.888Z,3.70
2017-06-20T21:53:05.539Z,3.57
2017-06-20T21:55:33.469Z,5.13
2017-06-20T21:58:01.076Z,3.67
2017-06-20T22:00:28.700Z,5.10
2017-06-20T22:02:56.724Z,3.57
2017-06-20T22:05:24.341Z,3.90
2017-06-20T22:07:52.749Z,4.17
2017-06-20T22:10:20.700Z,3.37
2017-06-20T22:12:48.313Z,3.80
2017-06-20T22:15:15.929Z,3.20
2017-06-20T22:17:44.648Z,3.90
2017-06-20T22:20:12.276Z,3.77
2017-06-20T22:22:39.890Z,4.30
2017-06-20T22:25:07.896Z,4.30
2017-06-20T22:27:35.512Z,3.40
2017-06-20T22:30:04.949Z,4.73
2017-06-20T22:32:32.980Z,4.27
2017-06-20T22:35:00.589Z,4.10
2017-06-20T22:37:28.217Z,3.87
2017-06-20T22:39:56.236Z,4.47
2017-06-20T22:42:23.857Z,4.33
2017-06-20T22:44:52.252Z,3.60
2017-06-20T22:47:20.173Z,3.50
2017-06-20T22:49:48.572Z,4.00
2017-06-20T22:52:16.217Z,3.80
2017-06-20T22:54:44.154Z,3.90
2017-06-20T22:57:11.774Z,3.57
2017-06-20T22:59:40.153Z,3.33
2017-06-20T23:02:08.121Z,4.17
2017-06-20T23:04:35.757Z,4.50
2017-06-20T23:07:03.370Z,3.20
2017-06-20T23:09:31.372Z,4.03
2017-06-20T23:11:58.996Z,3.70
2017-06-20T23:14:26.615Z,4.13
2017-06-20T23:16:54.611Z,3.70
2017-06-20T23:19:22.284Z,4.07
2017-06-20T23:21:49.946Z,4.00
2017-06-20T23:24:17.868Z,3.43
2017-06-20T23:26:45.477Z,3.77
2017-06-20T23:29:13.867Z,4.00
2017-06-20T23:31:41.777Z,3.87
2017-06-20T23:34:09.389Z,3.80
2017-06-20T23:36:37.005Z,3.83
2017-06-20T23:39:04.964Z,3.70
2017-06-20T23:41:33.461Z,3.57
2017-06-20T23:44:01.068Z,3.80
2017-06-20T23:46:29.033Z,4.33
2017-06-20T23:48:56.654Z,4.10
2017-06-20T23:51:24.289Z,4.20
2017-06-20T23:53:53.127Z,4.63
2017-06-20T23:56:20.742Z,4.57
2017-06-20T23:58:48.357Z,4.40
